Känerkinden
Datum - Zeit
TemperaturTaupunktFeuchteSolar Wind aus Richtung WindböenLuftdruck (QFF)RegenRegenstärkeTrend
08.05.2026 - 00.00Uhr9.4 °C6.9 °C84 %0.0 W/m²0.0 km/hWesten0.0 km/h1015.3 hPa0.0 mm0.0 mm/hwechselhaft
08.05.2026 - 00.05Uhr9.4 °C6.8 °C84 %0.0 W/m²0.0 km/hWesten0.0 km/h1015.3 hPa0.0 mm0.0 mm/hwechselhaft
08.05.2026 - 00.10Uhr9.4 °C6.8 °C84 %0.0 W/m²0.0 km/hWesten0.0 km/h1015.3 hPa0.0 mm0.0 mm/hwechselhaft
08.05.2026 - 00.15Uhr9.3 °C6.7 °C84 %0.0 W/m²0.3 km/hWesten1.4 km/h1015.3 hPa0.0 mm0.0 mm/hwechselhaft
08.05.2026 - 00.20Uhr9.3 °C6.8 °C84 %0.0 W/m²0.0 km/hWesten0.0 km/h1015.3 hPa0.0 mm0.0 mm/hwechselhaft
08.05.2026 - 00.25Uhr9.3 °C6.9 °C85 %0.0 W/m²0.0 km/hWesten0.0 km/h1015.1 hPa0.0 mm0.0 mm/hwechselhaft
08.05.2026 - 00.30Uhr9.2 °C6.8 °C85 %0.0 W/m²0.0 km/hWesten0.0 km/h1015.1 hPa0.0 mm0.0 mm/hwechselhaft
08.05.2026 - 00.35Uhr9.2 °C6.8 °C85 %0.0 W/m²0.0 km/hWesten0.0 km/h1015.1 hPa0.0 mm0.0 mm/hwechselhaft
08.05.2026 - 00.40Uhr9.1 °C6.7 °C85 %0.0 W/m²0.0 km/hWesten0.0 km/h1015.1 hPa0.0 mm0.0 mm/hwechselhaft
08.05.2026 - 00.45Uhr9.0 °C6.6 °C85 %0.0 W/m²0.0 km/hWesten0.0 km/h1015.1 hPa0.0 mm0.0 mm/hwechselhaft
08.05.2026 - 00.50Uhr8.9 °C6.5 °C85 %0.0 W/m²0.0 km/hWesten0.0 km/h1015.1 hPa0.0 mm0.0 mm/hwechselhaft
08.05.2026 - 00.55Uhr8.8 °C6.4 °C85 %0.0 W/m²0.0 km/hWesten0.0 km/h1015.0 hPa0.0 mm0.0 mm/hwechselhaft
08.05.2026 - 01.00Uhr8.7 °C6.3 °C85 %0.0 W/m²0.0 km/hWesten0.0 km/h1015.0 hPa0.0 mm0.0 mm/hwechselhaft
08.05.2026 - 01.05Uhr8.5 °C6.1 °C85 %0.0 W/m²0.0 km/hWesten0.0 km/h1015.0 hPa0.0 mm0.0 mm/hwechselhaft
08.05.2026 - 01.10Uhr8.4 °C5.9 °C84 %0.0 W/m²0.0 km/hWesten0.0 km/h1014.9 hPa0.0 mm0.0 mm/hwechselhaft
08.05.2026 - 01.15Uhr8.2 °C5.7 °C84 %0.0 W/m²0.0 km/hWesten0.0 km/h1014.9 hPa0.0 mm0.0 mm/hwechselhaft
08.05.2026 - 01.20Uhr8.0 °C5.5 °C84 %0.0 W/m²0.0 km/hWesten0.0 km/h1014.8 hPa0.0 mm0.0 mm/hwechselhaft
08.05.2026 - 01.25Uhr7.9 °C5.4 °C84 %0.0 W/m²0.0 km/hWesten0.0 km/h1014.7 hPa0.0 mm0.0 mm/hwechselhaft
08.05.2026 - 01.30Uhr7.8 °C5.3 °C84 %0.0 W/m²0.0 km/hWesten0.0 km/h1014.7 hPa0.0 mm0.0 mm/hwechselhaft
08.05.2026 - 01.35Uhr7.6 °C5.1 °C84 %0.0 W/m²0.0 km/hWesten0.0 km/h1014.6 hPa0.0 mm0.0 mm/hwechselhaft
08.05.2026 - 01.40Uhr7.5 °C5.1 °C85 %0.0 W/m²0.0 km/hWesten0.0 km/h1014.6 hPa0.0 mm0.0 mm/hwechselhaft
08.05.2026 - 01.45Uhr7.4 °C5.0 °C85 %0.0 W/m²0.0 km/hWesten0.0 km/h1014.5 hPa0.0 mm0.0 mm/hwechselhaft
08.05.2026 - 01.50Uhr7.3 °C4.9 °C85 %0.0 W/m²0.0 km/hWesten0.0 km/h1014.5 hPa0.0 mm0.0 mm/hwechselhaft
08.05.2026 - 01.55Uhr7.2 °C4.8 °C85 %0.0 W/m²0.0 km/hWesten0.0 km/h1014.5 hPa0.0 mm0.0 mm/hwechselhaft
08.05.2026 - 02.00Uhr7.1 °C4.7 °C85 %0.0 W/m²0.0 km/hWesten0.0 km/h1014.5 hPa0.0 mm0.0 mm/hwechselhaft
08.05.2026 - 02.05Uhr7.0 °C4.7 °C85 %0.0 W/m²0.0 km/hWesten0.0 km/h1014.5 hPa0.0 mm0.0 mm/hwechselhaft
08.05.2026 - 02.10Uhr6.9 °C4.6 °C86 %0.0 W/m²3.0 km/hOsten7.9 km/h1014.5 hPa0.0 mm0.0 mm/hwechselhaft
08.05.2026 - 02.15Uhr6.8 °C4.6 °C86 %0.0 W/m²2.6 km/hOsten6.5 km/h1014.5 hPa0.0 mm0.0 mm/hwechselhaft
08.05.2026 - 02.20Uhr6.8 °C4.8 °C87 %0.0 W/m²3.0 km/hOsten7.9 km/h1014.5 hPa0.0 mm0.0 mm/hwechselhaft
08.05.2026 - 02.25Uhr6.7 °C4.7 °C87 %0.0 W/m²0.0 km/hSüdosten0.0 km/h1014.5 hPa0.0 mm0.0 mm/hwechselhaft
08.05.2026 - 02.30Uhr6.7 °C4.9 °C88 %0.0 W/m²0.0 km/hSüdosten0.0 km/h1014.4 hPa0.0 mm0.0 mm/hwechselhaft
08.05.2026 - 02.35Uhr6.7 °C4.9 °C88 %0.0 W/m²0.0 km/hSüdosten0.0 km/h1014.4 hPa0.0 mm0.0 mm/hwechselhaft
08.05.2026 - 02.40Uhr6.7 °C4.9 °C88 %0.0 W/m²0.0 km/hSüdosten0.0 km/h1014.4 hPa0.0 mm0.0 mm/hwechselhaft
08.05.2026 - 02.45Uhr6.7 °C4.9 °C88 %0.0 W/m²0.0 km/hSüdosten0.0 km/h1014.4 hPa0.0 mm0.0 mm/hwechselhaft
08.05.2026 - 02.50Uhr6.6 °C4.8 °C88 %0.0 W/m²0.0 km/hSüdosten0.0 km/h1014.4 hPa0.0 mm0.0 mm/hwechselhaft
08.05.2026 - 02.55Uhr6.5 °C4.7 °C88 %0.0 W/m²0.0 km/hSüdosten0.0 km/h1014.4 hPa0.0 mm0.0 mm/hwechselhaft
08.05.2026 - 03.00Uhr6.4 °C4.6 °C88 %0.0 W/m²0.0 km/hSüdosten0.0 km/h1014.4 hPa0.0 mm0.0 mm/hwechselhaft
08.05.2026 - 03.05Uhr6.3 °C4.5 °C88 %0.0 W/m²0.0 km/hSüdosten0.0 km/h1014.4 hPa0.0 mm0.0 mm/hwechselhaft
08.05.2026 - 03.10Uhr6.2 °C4.4 °C88 %0.0 W/m²0.0 km/hSüdosten0.0 km/h1014.4 hPa0.0 mm0.0 mm/hwechselhaft
08.05.2026 - 03.15Uhr6.1 °C4.1 °C87 %0.0 W/m²0.0 km/hSüdosten0.0 km/h1014.4 hPa0.0 mm0.0 mm/hwechselhaft
08.05.2026 - 03.20Uhr6.0 °C4.2 °C88 %0.0 W/m²0.0 km/hSüdosten0.0 km/h1014.4 hPa0.0 mm0.0 mm/hwechselhaft
08.05.2026 - 03.25Uhr5.9 °C4.1 °C88 %0.0 W/m²0.0 km/hSüdosten0.0 km/h1014.4 hPa0.0 mm0.0 mm/hwechselhaft
08.05.2026 - 03.30Uhr5.9 °C4.1 °C88 %0.0 W/m²0.0 km/hSüdosten0.0 km/h1014.5 hPa0.0 mm0.0 mm/hwechselhaft
08.05.2026 - 03.35Uhr5.8 °C4.0 °C88 %0.0 W/m²0.0 km/hSüdosten0.0 km/h1014.5 hPa0.0 mm0.0 mm/hwechselhaft
08.05.2026 - 03.40Uhr5.8 °C4.0 °C88 %0.0 W/m²0.0 km/hSüdosten0.0 km/h1014.6 hPa0.0 mm0.0 mm/hwechselhaft
08.05.2026 - 03.45Uhr5.7 °C3.9 °C88 %0.0 W/m²0.0 km/hSüdosten0.0 km/h1014.5 hPa0.0 mm0.0 mm/hwechselhaft
08.05.2026 - 03.50Uhr5.7 °C3.9 °C88 %0.0 W/m²0.0 km/hSüdosten0.0 km/h1014.6 hPa0.0 mm0.0 mm/hwechselhaft
08.05.2026 - 03.55Uhr5.6 °C3.9 °C88 %0.0 W/m²0.0 km/hSüdosten0.0 km/h1014.5 hPa0.0 mm0.0 mm/hwechselhaft
08.05.2026 - 04.00Uhr5.6 °C3.9 °C89 %0.0 W/m²0.8 km/hSüdosten6.5 km/h1014.5 hPa0.0 mm0.0 mm/hwechselhaft
08.05.2026 - 04.05Uhr5.6 °C3.9 °C89 %0.0 W/m²0.0 km/hSüdosten0.0 km/h1014.4 hPa0.0 mm0.0 mm/hwechselhaft
08.05.2026 - 04.10Uhr5.7 °C4.1 °C90 %0.0 W/m²0.0 km/hSüdosten0.0 km/h1014.4 hPa0.0 mm0.0 mm/hwechselhaft
08.05.2026 - 04.15Uhr5.7 °C4.2 °C90 %0.0 W/m²0.0 km/hSüdosten0.0 km/h1014.3 hPa0.0 mm0.0 mm/hwechselhaft
08.05.2026 - 04.20Uhr5.7 °C4.2 °C90 %0.0 W/m²0.0 km/hSüdosten0.0 km/h1014.4 hPa0.0 mm0.0 mm/hwechselhaft
08.05.2026 - 04.25Uhr5.6 °C4.1 °C90 %0.0 W/m²0.0 km/hSüdosten0.0 km/h1014.5 hPa0.0 mm0.0 mm/hwechselhaft
08.05.2026 - 04.30Uhr5.6 °C3.9 °C89 %0.0 W/m²0.0 km/hSüdosten0.0 km/h1014.5 hPa0.0 mm0.0 mm/hwechselhaft
08.05.2026 - 04.35Uhr5.5 °C3.8 °C89 %0.0 W/m²0.0 km/hSüdosten0.0 km/h1014.6 hPa0.0 mm0.0 mm/hwechselhaft
08.05.2026 - 04.40Uhr5.4 °C3.7 °C89 %0.0 W/m²3.3 km/hWesten4.7 km/h1014.6 hPa0.0 mm0.0 mm/hwechselhaft
08.05.2026 - 04.45Uhr5.3 °C3.6 °C89 %0.0 W/m²3.9 km/hWesten4.7 km/h1014.6 hPa0.0 mm0.0 mm/hwechselhaft
08.05.2026 - 04.50Uhr5.2 °C3.5 °C89 %0.0 W/m²4.0 km/hWesten4.7 km/h1014.7 hPa0.0 mm0.0 mm/hwechselhaft
08.05.2026 - 04.55Uhr5.1 °C3.4 °C89 %0.0 W/m²2.6 km/hWesten4.7 km/h1014.7 hPa0.0 mm0.0 mm/hwechselhaft
08.05.2026 - 05.00Uhr5.1 °C3.4 °C89 %0.0 W/m²3.9 km/hWesten4.7 km/h1014.7 hPa0.0 mm0.0 mm/hwechselhaft
08.05.2026 - 05.05Uhr5.1 °C3.5 °C89 %0.0 W/m²3.2 km/hWesten4.7 km/h1014.7 hPa0.0 mm0.0 mm/hwechselhaft
08.05.2026 - 05.10Uhr5.1 °C3.6 °C90 %0.0 W/m²0.0 km/hWesten0.0 km/h1014.8 hPa0.0 mm0.0 mm/hwechselhaft
08.05.2026 - 05.15Uhr5.2 °C3.9 °C91 %0.0 W/m²0.0 km/hWesten0.0 km/h1014.8 hPa0.0 mm0.0 mm/hwechselhaft
08.05.2026 - 05.20Uhr5.3 °C4.0 °C91 %0.0 W/m²0.0 km/hWesten0.0 km/h1014.9 hPa0.0 mm0.0 mm/hwechselhaft
08.05.2026 - 05.25Uhr5.5 °C4.1 °C91 %0.0 W/m²0.0 km/hWesten0.0 km/h1014.9 hPa0.0 mm0.0 mm/hwechselhaft
08.05.2026 - 05.30Uhr5.6 °C4.2 °C91 %0.0 W/m²0.0 km/hWesten0.0 km/h1014.9 hPa0.0 mm0.0 mm/hwechselhaft
08.05.2026 - 05.35Uhr5.6 °C4.2 °C91 %0.0 W/m²0.0 km/hWesten0.0 km/h1014.9 hPa0.0 mm0.0 mm/hwechselhaft
08.05.2026 - 05.40Uhr5.5 °C4.1 °C91 %0.0 W/m²0.2 km/hWesten1.4 km/h1014.9 hPa0.0 mm0.0 mm/hwechselhaft
08.05.2026 - 05.45Uhr5.6 °C4.2 °C91 %0.0 W/m²1.0 km/hNordosten3.2 km/h1014.8 hPa0.0 mm0.0 mm/hwechselhaft
08.05.2026 - 05.50Uhr5.6 °C4.2 °C91 %0.0 W/m²0.0 km/hNordosten0.0 km/h1014.8 hPa0.0 mm0.0 mm/hwechselhaft
08.05.2026 - 05.55Uhr5.6 °C4.2 °C91 %0.0 W/m²0.0 km/hNordosten0.0 km/h1014.8 hPa0.0 mm0.0 mm/hwechselhaft
08.05.2026 - 06.00Uhr5.5 °C4.2 °C91 %5.0 W/m²1.7 km/hNordosten3.2 km/h1014.8 hPa0.0 mm0.0 mm/hwechselhaft
08.05.2026 - 06.05Uhr5.5 °C4.1 °C91 %5.0 W/m²0.5 km/hNordosten1.4 km/h1014.8 hPa0.0 mm0.0 mm/hwechselhaft
08.05.2026 - 06.10Uhr5.5 °C4.1 °C91 %7.0 W/m²0.0 km/hNordosten0.0 km/h1014.8 hPa0.0 mm0.0 mm/hwechselhaft
08.05.2026 - 06.15Uhr5.4 °C4.0 °C91 %9.0 W/m²0.0 km/hNordosten0.0 km/h1014.8 hPa0.0 mm0.0 mm/hwechselhaft
08.05.2026 - 06.20Uhr5.4 °C4.0 °C91 %12.0 W/m²0.0 km/hNordosten0.0 km/h1014.9 hPa0.0 mm0.0 mm/hwechselhaft
08.05.2026 - 06.25Uhr5.4 °C4.0 °C91 %16.0 W/m²0.0 km/hNordosten0.0 km/h1014.9 hPa0.0 mm0.0 mm/hwechselhaft
08.05.2026 - 06.30Uhr5.3 °C4.0 °C91 %18.0 W/m²0.0 km/hNordosten0.0 km/h1014.9 hPa0.0 mm0.0 mm/hwechselhaft
08.05.2026 - 06.35Uhr5.3 °C4.0 °C91 %21.0 W/m²0.0 km/hNordosten0.0 km/h1015.0 hPa0.0 mm0.0 mm/hwechselhaft
08.05.2026 - 06.40Uhr5.3 °C4.0 °C91 %23.0 W/m²0.0 km/hNordosten0.0 km/h1015.0 hPa0.0 mm0.0 mm/hwechselhaft
08.05.2026 - 06.45Uhr5.3 °C4.0 °C91 %47.0 W/m²0.0 km/hNordosten0.0 km/h1015.0 hPa0.0 mm0.0 mm/hwechselhaft
08.05.2026 - 06.50Uhr5.3 °C4.1 °C92 %56.0 W/m²0.0 km/hNordosten0.0 km/h1015.0 hPa0.0 mm0.0 mm/hwechselhaft
08.05.2026 - 06.55Uhr5.4 °C4.2 °C92 %65.0 W/m²0.0 km/hNordosten0.0 km/h1015.0 hPa0.0 mm0.0 mm/hwechselhaft
08.05.2026 - 07.00Uhr5.7 °C4.6 °C93 %76.0 W/m²0.2 km/hNordosten1.4 km/h1015.0 hPa0.0 mm0.0 mm/hwechselhaft
08.05.2026 - 07.05Uhr6.0 °C5.0 °C93 %76.0 W/m²0.2 km/hNordosten1.4 km/h1014.9 hPa0.0 mm0.0 mm/hwechselhaft
08.05.2026 - 07.10Uhr6.3 °C5.3 °C93 %86.0 W/m²0.0 km/hNordosten0.0 km/h1014.9 hPa0.0 mm0.0 mm/hwechselhaft
08.05.2026 - 07.15Uhr6.5 °C5.4 °C93 %98.0 W/m²0.6 km/hNordosten3.2 km/h1014.9 hPa0.0 mm0.0 mm/hwechselhaft
08.05.2026 - 07.20Uhr6.7 °C5.6 °C93 %125.0 W/m²0.1 km/hNordosten1.4 km/h1014.9 hPa0.0 mm0.0 mm/hwechselhaft
08.05.2026 - 07.25Uhr7.1 °C6.0 °C93 %139.0 W/m²0.0 km/hNordosten0.0 km/h1015.0 hPa0.0 mm0.0 mm/hwechselhaft
08.05.2026 - 07.30Uhr7.3 °C6.2 °C93 %151.0 W/m²0.9 km/hNordosten3.2 km/h1014.9 hPa0.0 mm0.0 mm/hwechselhaft
08.05.2026 - 07.35Uhr7.5 °C6.4 °C93 %163.0 W/m²1.8 km/hOst-NO3.2 km/h1014.9 hPa0.0 mm0.0 mm/hwechselhaft
08.05.2026 - 07.40Uhr7.8 °C6.7 °C93 %178.0 W/m²0.1 km/hOst-NO1.4 km/h1014.9 hPa0.0 mm0.0 mm/hwechselhaft
08.05.2026 - 07.45Uhr8.1 °C7.0 °C93 %188.0 W/m²0.0 km/hOst-NO0.0 km/h1014.9 hPa0.0 mm0.0 mm/hwechselhaft
08.05.2026 - 07.50Uhr8.3 °C7.2 °C93 %199.0 W/m²0.0 km/hOst-NO0.0 km/h1014.9 hPa0.0 mm0.0 mm/hwechselhaft
08.05.2026 - 07.55Uhr8.5 °C7.4 °C93 %211.0 W/m²2.9 km/hOst-NO6.5 km/h1015.0 hPa0.0 mm0.0 mm/hwechselhaft
08.05.2026 - 08.00Uhr8.8 °C7.7 °C93 %223.0 W/m²3.8 km/hOsten7.9 km/h1015.0 hPa0.0 mm0.0 mm/hwechselhaft
08.05.2026 - 08.05Uhr9.1 °C7.9 °C92 %237.0 W/m²3.9 km/hOsten7.9 km/h1015.0 hPa0.0 mm0.0 mm/hwechselhaft
08.05.2026 - 08.10Uhr9.4 °C8.2 °C92 %253.0 W/m²4.6 km/hOsten9.7 km/h1015.0 hPa0.0 mm0.0 mm/hwechselhaft
08.05.2026 - 08.15Uhr9.8 °C8.3 °C91 %269.0 W/m²5.9 km/hOsten9.7 km/h1015.0 hPa0.0 mm0.0 mm/hwechselhaft
08.05.2026 - 08.20Uhr10.1 °C8.4 °C89 %285.0 W/m²5.0 km/hOsten9.7 km/h1015.1 hPa0.0 mm0.0 mm/hwechselhaft
08.05.2026 - 08.25Uhr10.4 °C8.3 °C87 %302.0 W/m²5.4 km/hOsten11.2 km/h1015.0 hPa0.0 mm0.0 mm/hwechselhaft
08.05.2026 - 08.30Uhr10.7 °C8.4 °C85 %318.0 W/m²6.2 km/hOsten11.2 km/h1015.0 hPa0.0 mm0.0 mm/hwechselhaft
08.05.2026 - 08.35Uhr10.9 °C8.3 °C84 %339.0 W/m²6.3 km/hOsten11.2 km/h1015.0 hPa0.0 mm0.0 mm/hwechselhaft
08.05.2026 - 08.40Uhr11.2 °C8.3 °C83 %357.0 W/m²4.8 km/hOsten9.7 km/h1015.0 hPa0.0 mm0.0 mm/hwechselhaft
08.05.2026 - 08.45Uhr11.4 °C8.3 °C81 %369.0 W/m²5.4 km/hOst-NO9.7 km/h1015.0 hPa0.0 mm0.0 mm/hwechselhaft
08.05.2026 - 08.50Uhr11.6 °C8.4 °C80 %378.0 W/m²6.0 km/hOst-NO9.7 km/h1015.2 hPa0.0 mm0.0 mm/hwechselhaft
08.05.2026 - 08.55Uhr11.7 °C8.4 °C80 %387.0 W/m²4.8 km/hOsten7.9 km/h1015.1 hPa0.0 mm0.0 mm/hwechselhaft
08.05.2026 - 09.00Uhr12.0 °C8.6 °C80 %385.0 W/m²4.9 km/hOsten11.2 km/h1015.1 hPa0.0 mm0.0 mm/hwechselhaft
08.05.2026 - 09.05Uhr12.2 °C8.9 °C80 %394.0 W/m²3.4 km/hOsten7.9 km/h1015.1 hPa0.0 mm0.0 mm/hwechselhaft
08.05.2026 - 09.10Uhr12.4 °C8.8 °C78 %392.0 W/m²5.3 km/hOst-NO9.7 km/h1015.1 hPa0.0 mm0.0 mm/hwechselhaft
08.05.2026 - 09.15Uhr12.7 °C9.0 °C78 %390.0 W/m²4.4 km/hOsten13.0 km/h1015.1 hPa0.0 mm0.0 mm/hwechselhaft
08.05.2026 - 09.20Uhr12.9 °C9.1 °C78 %396.0 W/m²7.3 km/hOsten11.2 km/h1015.1 hPa0.0 mm0.0 mm/hwechselhaft
08.05.2026 - 09.25Uhr13.1 °C9.0 °C76 %397.0 W/m²7.0 km/hOsten11.2 km/h1015.0 hPa0.0 mm0.0 mm/hwechselhaft
08.05.2026 - 09.30Uhr13.3 °C9.2 °C76 %403.0 W/m²6.2 km/hOsten13.0 km/h1015.0 hPa0.0 mm0.0 mm/hwechselhaft
08.05.2026 - 09.35Uhr13.3 °C9.2 °C76 %411.0 W/m²5.2 km/hOst-NO9.7 km/h1015.0 hPa0.0 mm0.0 mm/hwechselhaft
08.05.2026 - 09.40Uhr13.4 °C9.3 °C76 %422.0 W/m²7.3 km/hOsten13.0 km/h1015.0 hPa0.0 mm0.0 mm/hwechselhaft
08.05.2026 - 09.45Uhr13.6 °C9.3 °C75 %446.0 W/m²4.6 km/hOst-NO11.2 km/h1015.0 hPa0.0 mm0.0 mm/hwechselhaft
08.05.2026 - 09.50Uhr13.7 °C9.2 °C75 %462.0 W/m²4.9 km/hOst-NO9.7 km/h1015.0 hPa0.0 mm0.0 mm/hwechselhaft
08.05.2026 - 09.55Uhr13.7 °C9.3 °C75 %496.0 W/m²3.9 km/hOst-NO13.0 km/h1015.0 hPa0.0 mm0.0 mm/hwechselhaft
08.05.2026 - 10.00Uhr13.8 °C9.5 °C75 %515.0 W/m²4.2 km/hOst-NO7.9 km/h1015.0 hPa0.0 mm0.0 mm/hwechselhaft
08.05.2026 - 10.05Uhr14.0 °C9.5 °C74 %547.0 W/m²5.3 km/hOst-NO11.2 km/h1015.0 hPa0.0 mm0.0 mm/hwechselhaft
08.05.2026 - 10.10Uhr14.2 °C9.7 °C74 %575.0 W/m²5.6 km/hOst-NO11.2 km/h1014.9 hPa0.0 mm0.0 mm/hwechselhaft
08.05.2026 - 10.15Uhr14.2 °C9.7 °C74 %603.0 W/m²5.2 km/hSüdosten7.9 km/h1015.0 hPa0.0 mm0.0 mm/hwechselhaft
08.05.2026 - 10.20Uhr14.5 °C9.8 °C74 %619.0 W/m²7.2 km/hOst-NO9.7 km/h1015.0 hPa0.0 mm0.0 mm/hwechselhaft
08.05.2026 - 10.25Uhr14.7 °C9.8 °C73 %628.0 W/m²6.6 km/hOst-NO11.2 km/h1014.9 hPa0.0 mm0.0 mm/hwechselhaft
08.05.2026 - 10.30Uhr14.7 °C9.7 °C72 %640.0 W/m²4.6 km/hNordosten11.2 km/h1014.9 hPa0.0 mm0.0 mm/hwechselhaft
08.05.2026 - 10.35Uhr14.8 °C10.0 °C73 %652.0 W/m²3.7 km/hOsten9.7 km/h1015.0 hPa0.0 mm0.0 mm/hwechselhaft
08.05.2026 - 10.40Uhr14.9 °C10.0 °C72 %652.0 W/m²3.7 km/hOst-NO9.7 km/h1015.0 hPa0.0 mm0.0 mm/hwechselhaft
08.05.2026 - 10.45Uhr15.1 °C10.1 °C72 %675.0 W/m²5.7 km/hOsten11.2 km/h1015.0 hPa0.0 mm0.0 mm/hwechselhaft
08.05.2026 - 10.50Uhr15.3 °C10.2 °C72 %682.0 W/m²5.5 km/hOst-NO9.7 km/h1015.2 hPa0.0 mm0.0 mm/hwechselhaft
08.05.2026 - 10.55Uhr15.6 °C10.3 °C71 %696.0 W/m²5.6 km/hOst-SO7.9 km/h1015.1 hPa0.0 mm0.0 mm/hwechselhaft
08.05.2026 - 11.00Uhr15.8 °C10.4 °C70 %701.0 W/m²3.6 km/hOsten7.9 km/h1015.1 hPa0.0 mm0.0 mm/hwechselhaft
08.05.2026 - 11.05Uhr16.1 °C10.6 °C70 %708.0 W/m²4.4 km/hOst-NO9.7 km/h1015.0 hPa0.0 mm0.0 mm/hwechselhaft
08.05.2026 - 11.10Uhr16.3 °C10.4 °C68 %712.0 W/m²5.2 km/hOsten11.2 km/h1015.0 hPa0.0 mm0.0 mm/hwechselhaft
08.05.2026 - 11.15Uhr16.4 °C10.3 °C67 %740.0 W/m²7.3 km/hOst-NO13.0 km/h1015.0 hPa0.0 mm0.0 mm/hwechselhaft
08.05.2026 - 11.20Uhr16.4 °C10.4 °C67 %735.0 W/m²2.5 km/hOsten7.9 km/h1014.9 hPa0.0 mm0.0 mm/hwechselhaft
08.05.2026 - 11.25Uhr16.7 °C10.6 °C67 %740.0 W/m²4.6 km/hSüdosten11.2 km/h1014.9 hPa0.0 mm0.0 mm/hwechselhaft
08.05.2026 - 11.30Uhr17.0 °C10.7 °C66 %763.0 W/m²6.1 km/hSüdosten11.2 km/h1014.8 hPa0.0 mm0.0 mm/hwechselhaft
08.05.2026 - 11.35Uhr17.3 °C11.0 °C66 %788.0 W/m²8.7 km/hOst-SO17.6 km/h1014.8 hPa0.0 mm0.0 mm/hwechselhaft
08.05.2026 - 11.40Uhr17.6 °C10.7 °C64 %777.0 W/m²4.0 km/hOsten7.9 km/h1014.8 hPa0.0 mm0.0 mm/hwechselhaft
08.05.2026 - 11.45Uhr17.8 °C10.3 °C61 %770.0 W/m²3.6 km/hSüden13.0 km/h1014.7 hPa0.0 mm0.0 mm/hwechselhaft
08.05.2026 - 11.50Uhr18.1 °C11.0 °C63 %772.0 W/m²2.9 km/hOsten7.9 km/h1014.7 hPa0.0 mm0.0 mm/hwechselhaft
08.05.2026 - 11.55Uhr18.2 °C10.7 °C61 %765.0 W/m²5.2 km/hOst-NO11.2 km/h1014.7 hPa0.0 mm0.0 mm/hwechselhaft
08.05.2026 - 12.00Uhr18.3 °C10.8 °C62 %789.0 W/m²4.4 km/hOsten7.9 km/h1014.7 hPa0.0 mm0.0 mm/hwechselhaft